sensor_id;sensor_type;location;lat;lon;timestamp;temperature;humidity
27890;DHT22;15238;49.082;9.102;2023-04-15T00:00:38;4.80;99.90
27890;DHT22;15238;49.082;9.102;2023-04-15T00:02:39;4.80;99.90
27890;DHT22;15238;49.082;9.102;2023-04-15T00:04:39;4.80;99.90
27890;DHT22;15238;49.082;9.102;2023-04-15T00:06:40;4.80;99.90
27890;DHT22;15238;49.082;9.102;2023-04-15T00:08:41;4.80;99.90
27890;DHT22;15238;49.082;9.102;2023-04-15T00:10:41;4.70;99.90
27890;DHT22;15238;49.082;9.102;2023-04-15T00:12:43;4.70;99.90
27890;DHT22;15238;49.082;9.102;2023-04-15T00:14:44;4.70;99.90
27890;DHT22;15238;49.082;9.102;2023-04-15T00:16:44;4.70;99.90
27890;DHT22;15238;49.082;9.102;2023-04-15T00:18:45;4.60;99.90
27890;DHT22;15238;49.082;9.102;2023-04-15T00:20:46;4.60;99.90
27890;DHT22;15238;49.082;9.102;2023-04-15T00:22:47;4.60;99.90
27890;DHT22;15238;49.082;9.102;2023-04-15T00:24:48;4.50;99.90
27890;DHT22;15238;49.082;9.102;2023-04-15T00:26:48;4.50;99.90
27890;DHT22;15238;49.082;9.102;2023-04-15T00:28:49;4.40;99.90
27890;DHT22;15238;49.082;9.102;2023-04-15T00:30:49;4.40;99.90
27890;DHT22;15238;49.082;9.102;2023-04-15T00:32:50;4.40;99.90
27890;DHT22;15238;49.082;9.102;2023-04-15T00:34:51;4.40;99.90
27890;DHT22;15238;49.082;9.102;2023-04-15T00:36:51;4.40;99.90
27890;DHT22;15238;49.082;9.102;2023-04-15T00:38:52;4.40;99.90
27890;DHT22;15238;49.082;9.102;2023-04-15T00:40:53;4.40;99.90
27890;DHT22;15238;49.082;9.102;2023-04-15T00:42:54;4.40;99.90
27890;DHT22;15238;49.082;9.102;2023-04-15T00:44:55;4.30;99.90
27890;DHT22;15238;49.082;9.102;2023-04-15T00:46:57;4.30;99.90
27890;DHT22;15238;49.082;9.102;2023-04-15T00:48:57;4.30;99.90
27890;DHT22;15238;49.082;9.102;2023-04-15T00:50:58;4.30;99.90
27890;DHT22;15238;49.082;9.102;2023-04-15T00:52:58;4.20;99.90
27890;DHT22;15238;49.082;9.102;2023-04-15T00:54:59;4.20;99.90
27890;DHT22;15238;49.082;9.102;2023-04-15T00:57:00;4.20;99.90
27890;DHT22;15238;49.082;9.102;2023-04-15T00:59:01;4.20;99.90
27890;DHT22;15238;49.082;9.102;2023-04-15T01:01:02;4.20;99.90
27890;DHT22;15238;49.082;9.102;2023-04-15T01:03:03;4.20;99.90
27890;DHT22;15238;49.082;9.102;2023-04-15T01:05:04;4.10;99.90
27890;DHT22;15238;49.082;9.102;2023-04-15T01:07:05;4.10;99.90
27890;DHT22;15238;49.082;9.102;2023-04-15T01:09:06;4.10;99.90
27890;DHT22;15238;49.082;9.102;2023-04-15T01:11:06;4.10;99.90
27890;DHT22;15238;49.082;9.102;2023-04-15T01:13:07;4.10;99.90
27890;DHT22;15238;49.082;9.102;2023-04-15T01:15:08;4.10;99.90
27890;DHT22;15238;49.082;9.102;2023-04-15T01:17:10;4.10;99.90
27890;DHT22;15238;49.082;9.102;2023-04-15T01:19:11;4.10;99.90
27890;DHT22;15238;49.082;9.102;2023-04-15T01:21:13;4.10;99.90
27890;DHT22;15238;49.082;9.102;2023-04-15T01:23:14;4.10;99.90
27890;DHT22;15238;49.082;9.102;2023-04-15T01:25:18;4.00;99.90
27890;DHT22;15238;49.082;9.102;2023-04-15T01:27:19;4.00;99.90
27890;DHT22;15238;49.082;9.102;2023-04-15T01:29:20;4.00;99.90
27890;DHT22;15238;49.082;9.102;2023-04-15T01:31:22;4.00;99.90
27890;DHT22;15238;49.082;9.102;2023-04-15T01:33:23;4.00;99.90
27890;DHT22;15238;49.082;9.102;2023-04-15T01:35:23;4.00;99.90
27890;DHT22;15238;49.082;9.102;2023-04-15T01:37:24;4.00;99.90
27890;DHT22;15238;49.082;9.102;2023-04-15T01:39:25;3.90;99.90
27890;DHT22;15238;49.082;9.102;2023-04-15T01:41:26;3.90;99.90
27890;DHT22;15238;49.082;9.102;2023-04-15T01:43:27;3.90;99.90
27890;DHT22;15238;49.082;9.102;2023-04-15T01:45:28;3.90;99.90
27890;DHT22;15238;49.082;9.102;2023-04-15T01:47:29;3.90;99.90
27890;DHT22;15238;49.082;9.102;2023-04-15T01:49:29;3.80;99.90
27890;DHT22;15238;49.082;9.102;2023-04-15T01:51:30;3.80;99.90
27890;DHT22;15238;49.082;9.102;2023-04-15T01:53:31;3.80;99.90
27890;DHT22;15238;49.082;9.102;2023-04-15T01:55:31;3.90;99.90
27890;DHT22;15238;49.082;9.102;2023-04-15T01:57:32;3.90;99.90
27890;DHT22;15238;49.082;9.102;2023-04-15T01:59:32;3.80;99.90
27890;DHT22;15238;49.082;9.102;2023-04-15T02:01:33;3.80;99.90
27890;DHT22;15238;49.082;9.102;2023-04-15T02:03:33;3.70;99.90
27890;DHT22;15238;49.082;9.102;2023-04-15T02:05:34;3.70;99.90
27890;DHT22;15238;49.082;9.102;2023-04-15T02:07:35;3.60;99.90
27890;DHT22;15238;49.082;9.102;2023-04-15T02:09:36;3.70;99.90
27890;DHT22;15238;49.082;9.102;2023-04-15T02:11:36;3.70;99.90
27890;DHT22;15238;49.082;9.102;2023-04-15T02:13:37;3.70;99.90
27890;DHT22;15238;49.082;9.102;2023-04-15T02:15:37;3.60;99.90
27890;DHT22;15238;49.082;9.102;2023-04-15T02:17:38;3.50;99.90
27890;DHT22;15238;49.082;9.102;2023-04-15T02:19:38;3.50;99.90
27890;DHT22;15238;49.082;9.102;2023-04-15T02:21:40;3.50;99.90
27890;DHT22;15238;49.082;9.102;2023-04-15T02:23:40;3.40;99.90
27890;DHT22;15238;49.082;9.102;2023-04-15T02:25:41;3.40;99.90
27890;DHT22;15238;49.082;9.102;2023-04-15T02:27:42;3.20;99.90
27890;DHT22;15238;49.082;9.102;2023-04-15T02:29:44;3.20;99.90
27890;DHT22;15238;49.082;9.102;2023-04-15T02:31:45;3.20;99.90
27890;DHT22;15238;49.082;9.102;2023-04-15T02:33:47;3.10;99.90
27890;DHT22;15238;49.082;9.102;2023-04-15T02:35:47;3.10;99.90
27890;DHT22;15238;49.082;9.102;2023-04-15T02:37:48;3.10;99.90
27890;DHT22;15238;49.082;9.102;2023-04-15T02:39:48;3.10;99.90
27890;DHT22;15238;49.082;9.102;2023-04-15T02:41:49;3.10;99.90
27890;DHT22;15238;49.082;9.102;2023-04-15T02:43:53;3.10;99.90
27890;DHT22;15238;49.082;9.102;2023-04-15T02:45:53;3.00;99.90
27890;DHT22;15238;49.082;9.102;2023-04-15T02:47:54;3.00;99.90
27890;DHT22;15238;49.082;9.102;2023-04-15T02:49:55;2.90;99.90
27890;DHT22;15238;49.082;9.102;2023-04-15T02:51:56;2.80;99.90
27890;DHT22;15238;49.082;9.102;2023-04-15T02:53:57;2.80;99.90
27890;DHT22;15238;49.082;9.102;2023-04-15T02:55:57;2.80;99.90
27890;DHT22;15238;49.082;9.102;2023-04-15T02:57:59;2.80;99.90
27890;DHT22;15238;49.082;9.102;2023-04-15T03:00:00;2.80;99.90
27890;DHT22;15238;49.082;9.102;2023-04-15T03:02:00;2.80;99.90
27890;DHT22;15238;49.082;9.102;2023-04-15T03:04:01;2.80;99.90
27890;DHT22;15238;49.082;9.102;2023-04-15T03:06:02;2.90;99.90
27890;DHT22;15238;49.082;9.102;2023-04-15T03:08:02;2.80;99.90
27890;DHT22;15238;49.082;9.102;2023-04-15T03:10:03;2.90;99.90
27890;DHT22;15238;49.082;9.102;2023-04-15T03:12:03;2.90;99.90
27890;DHT22;15238;49.082;9.102;2023-04-15T03:14:04;2.90;99.90
27890;DHT22;15238;49.082;9.102;2023-04-15T03:16:05;3.00;99.90
27890;DHT22;15238;49.082;9.102;2023-04-15T03:18:05;3.00;99.90
27890;DHT22;15238;49.082;9.102;2023-04-15T03:20:06;3.00;99.90
27890;DHT22;15238;49.082;9.102;2023-04-15T03:22:07;3.00;99.90
27890;DHT22;15238;49.082;9.102;2023-04-15T03:24:07;3.10;99.90
27890;DHT22;15238;49.082;9.102;2023-04-15T03:26:08;3.10;99.90
27890;DHT22;15238;49.082;9.102;2023-04-15T03:28:08;3.10;99.90
27890;DHT22;15238;49.082;9.102;2023-04-15T03:30:09;3.10;99.90
27890;DHT22;15238;49.082;9.102;2023-04-15T03:32:10;3.10;99.90
27890;DHT22;15238;49.082;9.102;2023-04-15T03:34:11;3.10;99.90
27890;DHT22;15238;49.082;9.102;2023-04-15T03:36:11;3.00;99.90
27890;DHT22;15238;49.082;9.102;2023-04-15T03:38:12;2.90;99.90
27890;DHT22;15238;49.082;9.102;2023-04-15T03:40:13;2.90;99.90
27890;DHT22;15238;49.082;9.102;2023-04-15T03:42:13;2.90;99.90
27890;DHT22;15238;49.082;9.102;2023-04-15T03:44:14;2.90;99.90
27890;DHT22;15238;49.082;9.102;2023-04-15T03:46:14;3.00;99.90
27890;DHT22;15238;49.082;9.102;2023-04-15T03:48:15;3.00;99.90
27890;DHT22;15238;49.082;9.102;2023-04-15T03:50:15;3.00;99.90
27890;DHT22;15238;49.082;9.102;2023-04-15T03:52:16;3.00;99.90
27890;DHT22;15238;49.082;9.102;2023-04-15T03:54:16;3.10;99.90
27890;DHT22;15238;49.082;9.102;2023-04-15T03:56:17;3.10;99.90
27890;DHT22;15238;49.082;9.102;2023-04-15T03:58:17;3.10;99.90
27890;DHT22;15238;49.082;9.102;2023-04-15T04:00:18;3.10;99.90
27890;DHT22;15238;49.082;9.102;2023-04-15T04:02:19;3.10;99.90
27890;DHT22;15238;49.082;9.102;2023-04-15T04:04:19;3.10;99.90
27890;DHT22;15238;49.082;9.102;2023-04-15T04:06:20;3.10;99.90
27890;DHT22;15238;49.082;9.102;2023-04-15T04:08:20;3.00;99.90
27890;DHT22;15238;49.082;9.102;2023-04-15T04:10:21;3.00;99.90
27890;DHT22;15238;49.082;9.102;2023-04-15T04:12:21;3.00;99.90
27890;DHT22;15238;49.082;9.102;2023-04-15T04:14:22;3.00;99.90
27890;DHT22;15238;49.082;9.102;2023-04-15T04:16:28;2.90;99.90
27890;DHT22;15238;49.082;9.102;2023-04-15T04:18:32;2.90;99.90
27890;DHT22;15238;49.082;9.102;2023-04-15T04:20:33;2.90;99.90
27890;DHT22;15238;49.082;9.102;2023-04-15T04:22:37;2.90;99.90
27890;DHT22;15238;49.082;9.102;2023-04-15T04:24:39;2.90;99.90
27890;DHT22;15238;49.082;9.102;2023-04-15T04:26:39;2.80;99.90
27890;DHT22;15238;49.082;9.102;2023-04-15T04:28:40;2.80;99.90
27890;DHT22;15238;49.082;9.102;2023-04-15T04:30:42;2.90;99.90
27890;DHT22;15238;49.082;9.102;2023-04-15T04:32:42;2.90;99.90
27890;DHT22;15238;49.082;9.102;2023-04-15T04:34:43;2.80;99.90
27890;DHT22;15238;49.082;9.102;2023-04-15T04:36:43;2.80;99.90
27890;DHT22;15238;49.082;9.102;2023-04-15T04:38:44;2.80;99.90
27890;DHT22;15238;49.082;9.102;2023-04-15T04:40:44;2.80;99.90
27890;DHT22;15238;49.082;9.102;2023-04-15T04:42:45;2.90;99.90
27890;DHT22;15238;49.082;9.102;2023-04-15T04:44:45;2.80;99.90
27890;DHT22;15238;49.082;9.102;2023-04-15T04:46:46;2.80;99.90
27890;DHT22;15238;49.082;9.102;2023-04-15T04:48:46;2.80;99.90
27890;DHT22;15238;49.082;9.102;2023-04-15T04:50:47;2.70;99.90
27890;DHT22;15238;49.082;9.102;2023-04-15T04:52:48;2.70;99.90
27890;DHT22;15238;49.082;9.102;2023-04-15T04:54:48;2.70;99.90
27890;DHT22;15238;49.082;9.102;2023-04-15T04:56:49;2.70;99.90
27890;DHT22;15238;49.082;9.102;2023-04-15T04:58:49;2.60;99.90
27890;DHT22;15238;49.082;9.102;2023-04-15T05:00:50;2.60;99.90
27890;DHT22;15238;49.082;9.102;2023-04-15T05:02:51;2.60;99.90
27890;DHT22;15238;49.082;9.102;2023-04-15T05:04:51;2.60;99.90
27890;DHT22;15238;49.082;9.102;2023-04-15T05:06:53;2.60;99.90
27890;DHT22;15238;49.082;9.102;2023-04-15T05:08:54;2.60;99.90
27890;DHT22;15238;49.082;9.102;2023-04-15T05:10:55;2.60;99.90
27890;DHT22;15238;49.082;9.102;2023-04-15T05:12:56;2.60;99.90
27890;DHT22;15238;49.082;9.102;2023-04-15T05:14:57;2.60;99.90
27890;DHT22;15238;49.082;9.102;2023-04-15T05:16:57;2.50;99.90
27890;DHT22;15238;49.082;9.102;2023-04-15T05:18:58;2.60;99.90
27890;DHT22;15238;49.082;9.102;2023-04-15T05:20:58;2.60;99.90
27890;DHT22;15238;49.082;9.102;2023-04-15T05:22:59;2.60;99.90
27890;DHT22;15238;49.082;9.102;2023-04-15T05:25:00;2.60;99.90
27890;DHT22;15238;49.082;9.102;2023-04-15T05:27:00;2.70;99.90
27890;DHT22;15238;49.082;9.102;2023-04-15T05:29:01;2.70;99.90
27890;DHT22;15238;49.082;9.102;2023-04-15T05:31:02;2.80;99.90
27890;DHT22;15238;49.082;9.102;2023-04-15T05:33:03;2.80;99.90
27890;DHT22;15238;49.082;9.102;2023-04-15T05:35:04;2.80;99.90
27890;DHT22;15238;49.082;9.102;2023-04-15T05:37:04;2.80;99.90
27890;DHT22;15238;49.082;9.102;2023-04-15T05:39:05;2.70;99.90
27890;DHT22;15238;49.082;9.102;2023-04-15T05:41:06;2.90;99.90
27890;DHT22;15238;49.082;9.102;2023-04-15T05:43:07;3.00;99.90
27890;DHT22;15238;49.082;9.102;2023-04-15T05:45:07;3.10;99.90
27890;DHT22;15238;49.082;9.102;2023-04-15T05:47:08;3.10;99.90
27890;DHT22;15238;49.082;9.102;2023-04-15T05:49:10;3.20;99.90
27890;DHT22;15238;49.082;9.102;2023-04-15T05:51:11;3.20;99.90
27890;DHT22;15238;49.082;9.102;2023-04-15T05:53:11;3.20;99.90
27890;DHT22;15238;49.082;9.102;2023-04-15T05:55:12;3.30;99.90
27890;DHT22;15238;49.082;9.102;2023-04-15T05:57:13;3.40;99.90
27890;DHT22;15238;49.082;9.102;2023-04-15T05:59:14;3.50;99.90
27890;DHT22;15238;49.082;9.102;2023-04-15T06:01:14;3.50;99.90
27890;DHT22;15238;49.082;9.102;2023-04-15T06:03:16;3.70;99.90
27890;DHT22;15238;49.082;9.102;2023-04-15T06:05:17;3.80;99.90
27890;DHT22;15238;49.082;9.102;2023-04-15T06:07:18;3.90;99.90
27890;DHT22;15238;49.082;9.102;2023-04-15T06:09:18;4.10;99.90
27890;DHT22;15238;49.082;9.102;2023-04-15T06:11:19;4.20;99.90
27890;DHT22;15238;49.082;9.102;2023-04-15T06:13:21;4.40;99.90
27890;DHT22;15238;49.082;9.102;2023-04-15T06:15:21;4.60;99.90
27890;DHT22;15238;49.082;9.102;2023-04-15T06:17:22;4.70;99.90
27890;DHT22;15238;49.082;9.102;2023-04-15T06:19:23;4.90;99.90
27890;DHT22;15238;49.082;9.102;2023-04-15T06:21:24;5.10;99.90
27890;DHT22;15238;49.082;9.102;2023-04-15T06:23:24;5.30;99.90
27890;DHT22;15238;49.082;9.102;2023-04-15T06:25:25;5.50;99.90
27890;DHT22;15238;49.082;9.102;2023-04-15T06:27:25;5.70;99.90
27890;DHT22;15238;49.082;9.102;2023-04-15T06:29:26;5.80;99.90
27890;DHT22;15238;49.082;9.102;2023-04-15T06:31:27;6.00;99.90
27890;DHT22;15238;49.082;9.102;2023-04-15T06:33:27;6.10;99.90
27890;DHT22;15238;49.082;9.102;2023-04-15T06:35:28;6.20;99.90
27890;DHT22;15238;49.082;9.102;2023-04-15T06:37:28;6.30;99.90
27890;DHT22;15238;49.082;9.102;2023-04-15T06:39:29;6.30;99.90
27890;DHT22;15238;49.082;9.102;2023-04-15T06:41:30;6.30;99.90
27890;DHT22;15238;49.082;9.102;2023-04-15T06:43:31;6.40;99.90
27890;DHT22;15238;49.082;9.102;2023-04-15T06:45:31;6.50;99.90
27890;DHT22;15238;49.082;9.102;2023-04-15T06:47:32;6.50;99.90
27890;DHT22;15238;49.082;9.102;2023-04-15T06:49:32;6.60;99.90
27890;DHT22;15238;49.082;9.102;2023-04-15T06:51:34;6.70;99.90
27890;DHT22;15238;49.082;9.102;2023-04-15T06:53:35;6.90;99.90
27890;DHT22;15238;49.082;9.102;2023-04-15T06:55:40;7.00;99.90
27890;DHT22;15238;49.082;9.102;2023-04-15T06:57:40;7.20;99.90
27890;DHT22;15238;49.082;9.102;2023-04-15T06:59:41;7.50;99.90
27890;DHT22;15238;49.082;9.102;2023-04-15T07:01:42;7.80;99.90
27890;DHT22;15238;49.082;9.102;2023-04-15T07:03:43;7.90;99.90
27890;DHT22;15238;49.082;9.102;2023-04-15T07:05:44;7.90;99.90
27890;DHT22;15238;49.082;9.102;2023-04-15T07:07:45;8.00;99.90
27890;DHT22;15238;49.082;9.102;2023-04-15T07:09:45;7.90;99.90
27890;DHT22;15238;49.082;9.102;2023-04-15T07:11:46;7.60;99.90
27890;DHT22;15238;49.082;9.102;2023-04-15T07:13:47;7.60;99.90
27890;DHT22;15238;49.082;9.102;2023-04-15T07:15:47;7.60;99.90
27890;DHT22;15238;49.082;9.102;2023-04-15T07:17:48;7.60;99.90
27890;DHT22;15238;49.082;9.102;2023-04-15T07:19:48;7.70;99.90
27890;DHT22;15238;49.082;9.102;2023-04-15T07:21:49;7.80;99.90
27890;DHT22;15238;49.082;9.102;2023-04-15T07:23:50;7.90;99.90
27890;DHT22;15238;49.082;9.102;2023-04-15T07:25:51;8.00;99.90
27890;DHT22;15238;49.082;9.102;2023-04-15T07:27:53;8.10;99.90
27890;DHT22;15238;49.082;9.102;2023-04-15T07:29:53;8.30;99.90
27890;DHT22;15238;49.082;9.102;2023-04-15T07:31:54;8.60;99.90
27890;DHT22;15238;49.082;9.102;2023-04-15T07:33:56;9.00;99.90
27890;DHT22;15238;49.082;9.102;2023-04-15T07:35:56;9.30;99.90
27890;DHT22;15238;49.082;9.102;2023-04-15T07:37:57;9.60;99.90
27890;DHT22;15238;49.082;9.102;2023-04-15T07:39:58;9.90;99.90
27890;DHT22;15238;49.082;9.102;2023-04-15T07:41:58;10.10;99.90
27890;DHT22;15238;49.082;9.102;2023-04-15T07:43:59;10.30;99.90
27890;DHT22;15238;49.082;9.102;2023-04-15T07:45:59;10.60;99.90
27890;DHT22;15238;49.082;9.102;2023-04-15T07:48:03;10.90;99.90
27890;DHT22;15238;49.082;9.102;2023-04-15T07:50:05;11.20;99.90
27890;DHT22;15238;49.082;9.102;2023-04-15T07:52:06;11.50;99.90
27890;DHT22;15238;49.082;9.102;2023-04-15T07:54:07;11.10;99.90
27890;DHT22;15238;49.082;9.102;2023-04-15T07:56:08;10.90;99.90
27890;DHT22;15238;49.082;9.102;2023-04-15T07:58:08;10.50;99.90
27890;DHT22;15238;49.082;9.102;2023-04-15T08:00:09;10.70;99.90
27890;DHT22;15238;49.082;9.102;2023-04-15T08:02:10;11.00;99.90
27890;DHT22;15238;49.082;9.102;2023-04-15T08:04:11;11.20;99.90
27890;DHT22;15238;49.082;9.102;2023-04-15T08:06:11;11.20;99.90
27890;DHT22;15238;49.082;9.102;2023-04-15T08:08:12;11.40;99.90
27890;DHT22;15238;49.082;9.102;2023-04-15T08:10:13;11.50;99.90
27890;DHT22;15238;49.082;9.102;2023-04-15T08:12:14;11.40;99.90
27890;DHT22;15238;49.082;9.102;2023-04-15T08:14:15;11.70;99.90
27890;DHT22;15238;49.082;9.102;2023-04-15T08:16:20;12.10;99.90
27890;DHT22;15238;49.082;9.102;2023-04-15T08:18:21;12.40;99.90
27890;DHT22;15238;49.082;9.102;2023-04-15T08:20:22;12.80;99.90
27890;DHT22;15238;49.082;9.102;2023-04-15T08:22:22;12.60;99.90
27890;DHT22;15238;49.082;9.102;2023-04-15T08:24:24;12.70;99.90
27890;DHT22;15238;49.082;9.102;2023-04-15T08:26:25;12.90;99.90
27890;DHT22;15238;49.082;9.102;2023-04-15T08:28:26;13.10;99.90
27890;DHT22;15238;49.082;9.102;2023-04-15T08:30:26;13.30;99.90
27890;DHT22;15238;49.082;9.102;2023-04-15T08:32:27;13.50;99.90
27890;DHT22;15238;49.082;9.102;2023-04-15T08:34:28;13.80;99.90
27890;DHT22;15238;49.082;9.102;2023-04-15T08:36:29;14.00;99.90
27890;DHT22;15238;49.082;9.102;2023-04-15T08:38:30;13.50;99.90
27890;DHT22;15238;49.082;9.102;2023-04-15T08:40:39;13.60;99.90
27890;DHT22;15238;49.082;9.102;2023-04-15T08:42:43;13.10;99.90
27890;DHT22;15238;49.082;9.102;2023-04-15T08:44:45;13.20;99.90
27890;DHT22;15238;49.082;9.102;2023-04-15T08:46:47;13.50;99.90
27890;DHT22;15238;49.082;9.102;2023-04-15T08:48:48;13.70;99.90
27890;DHT22;15238;49.082;9.102;2023-04-15T08:50:49;13.70;99.90
27890;DHT22;15238;49.082;9.102;2023-04-15T08:52:54;14.10;99.90
27890;DHT22;15238;49.082;9.102;2023-04-15T08:54:56;13.80;99.90
27890;DHT22;15238;49.082;9.102;2023-04-15T08:57:00;13.90;99.90
27890;DHT22;15238;49.082;9.102;2023-04-15T08:59:02;14.10;99.90
27890;DHT22;15238;49.082;9.102;2023-04-15T09:01:03;14.20;99.90
27890;DHT22;15238;49.082;9.102;2023-04-15T09:03:07;14.20;99.90
27890;DHT22;15238;49.082;9.102;2023-04-15T09:05:08;14.20;99.90
27890;DHT22;15238;49.082;9.102;2023-04-15T09:07:08;14.00;99.90
27890;DHT22;15238;49.082;9.102;2023-04-15T09:09:09;13.90;99.90
27890;DHT22;15238;49.082;9.102;2023-04-15T09:11:09;13.90;99.90
27890;DHT22;15238;49.082;9.102;2023-04-15T09:13:10;13.90;99.90
27890;DHT22;15238;49.082;9.102;2023-04-15T09:15:11;13.90;99.90
27890;DHT22;15238;49.082;9.102;2023-04-15T09:17:12;13.80;99.90
27890;DHT22;15238;49.082;9.102;2023-04-15T09:19:22;13.80;99.90
27890;DHT22;15238;49.082;9.102;2023-04-15T09:21:23;13.70;99.90
27890;DHT22;15238;49.082;9.102;2023-04-15T09:23:24;13.80;99.90
27890;DHT22;15238;49.082;9.102;2023-04-15T09:25:26;13.90;99.90
27890;DHT22;15238;49.082;9.102;2023-04-15T09:27:27;13.80;99.90
27890;DHT22;15238;49.082;9.102;2023-04-15T09:29:28;13.40;99.90
27890;DHT22;15238;49.082;9.102;2023-04-15T09:31:29;13.40;99.90
27890;DHT22;15238;49.082;9.102;2023-04-15T09:33:30;13.50;99.90
27890;DHT22;15238;49.082;9.102;2023-04-15T09:35:31;13.80;99.90
27890;DHT22;15238;49.082;9.102;2023-04-15T09:37:35;14.20;99.90
27890;DHT22;15238;49.082;9.102;2023-04-15T09:42:03;14.20;99.90
27890;DHT22;15238;49.082;9.102;2023-04-15T09:44:04;14.20;99.90
27890;DHT22;15238;49.082;9.102;2023-04-15T09:46:04;14.30;99.90
27890;DHT22;15238;49.082;9.102;2023-04-15T09:48:20;14.40;99.90
27890;DHT22;15238;49.082;9.102;2023-04-15T09:50:20;14.50;99.90
27890;DHT22;15238;49.082;9.102;2023-04-15T09:52:21;14.50;99.90
27890;DHT22;15238;49.082;9.102;2023-04-15T09:54:21;14.70;99.90
27890;DHT22;15238;49.082;9.102;2023-04-15T09:56:22;14.70;99.90
27890;DHT22;15238;49.082;9.102;2023-04-15T09:58:26;14.60;99.90
27890;DHT22;15238;49.082;9.102;2023-04-15T10:00:28;14.60;99.90
27890;DHT22;15238;49.082;9.102;2023-04-15T10:02:29;14.80;99.90
27890;DHT22;15238;49.082;9.102;2023-04-15T10:04:32;15.00;99.90
27890;DHT22;15238;49.082;9.102;2023-04-15T10:06:34;15.00;99.90
27890;DHT22;15238;49.082;9.102;2023-04-15T10:08:35;14.60;99.60
27890;DHT22;15238;49.082;9.102;2023-04-15T10:10:36;14.80;99.90
27890;DHT22;15238;49.082;9.102;2023-04-15T10:12:37;14.90;99.90
27890;DHT22;15238;49.082;9.102;2023-04-15T10:14:41;15.00;99.90
27890;DHT22;15238;49.082;9.102;2023-04-15T10:16:44;15.10;99.90
27890;DHT22;15238;49.082;9.102;2023-04-15T10:18:55;15.10;99.90
27890;DHT22;15238;49.082;9.102;2023-04-15T10:20:56;14.80;99.60
27890;DHT22;15238;49.082;9.102;2023-04-15T10:22:58;14.80;99.90
27890;DHT22;15238;49.082;9.102;2023-04-15T10:25:01;14.80;98.60
27890;DHT22;15238;49.082;9.102;2023-04-15T10:27:04;14.70;98.60
27890;DHT22;15238;49.082;9.102;2023-04-15T10:29:05;14.70;99.60
27890;DHT22;15238;49.082;9.102;2023-04-15T10:31:08;14.80;99.90
27890;DHT22;15238;49.082;9.102;2023-04-15T10:33:11;14.90;98.60
27890;DHT22;15238;49.082;9.102;2023-04-15T10:35:13;15.20;99.70
27890;DHT22;15238;49.082;9.102;2023-04-15T10:37:32;15.10;97.10
27890;DHT22;15238;49.082;9.102;2023-04-15T10:41:33;15.30;99.10
27890;DHT22;15238;49.082;9.102;2023-04-15T10:43:36;15.40;96.90
27890;DHT22;15238;49.082;9.102;2023-04-15T10:45:36;15.50;97.00
27890;DHT22;15238;49.082;9.102;2023-04-15T10:47:37;15.50;97.80
27890;DHT22;15238;49.082;9.102;2023-04-15T10:51:56;15.50;96.20
27890;DHT22;15238;49.082;9.102;2023-04-15T10:54:00;15.80;96.70
27890;DHT22;15238;49.082;9.102;2023-04-15T10:56:03;15.80;96.80
27890;DHT22;15238;49.082;9.102;2023-04-15T10:58:04;15.90;94.30
27890;DHT22;15238;49.082;9.102;2023-04-15T11:00:14;16.00;93.90
27890;DHT22;15238;49.082;9.102;2023-04-15T11:02:15;16.00;94.20
27890;DHT22;15238;49.082;9.102;2023-04-15T11:04:51;15.90;95.30
27890;DHT22;15238;49.082;9.102;2023-04-15T11:07:04;15.50;95.40
27890;DHT22;15238;49.082;9.102;2023-04-15T11:09:05;15.60;94.70
27890;DHT22;15238;49.082;9.102;2023-04-15T11:11:08;15.40;94.20
27890;DHT22;15238;49.082;9.102;2023-04-15T11:13:16;15.30;94.70
27890;DHT22;15238;49.082;9.102;2023-04-15T11:17:40;15.00;95.80
27890;DHT22;15238;49.082;9.102;2023-04-15T11:19:40;15.00;96.70
27890;DHT22;15238;49.082;9.102;2023-04-15T11:21:41;14.70;96.10
27890;DHT22;15238;49.082;9.102;2023-04-15T11:23:42;14.70;97.60
27890;DHT22;15238;49.082;9.102;2023-04-15T11:25:46;14.70;98.80
27890;DHT22;15238;49.082;9.102;2023-04-15T11:27:47;14.90;98.40
27890;DHT22;15238;49.082;9.102;2023-04-15T11:29:49;14.90;96.90
27890;DHT22;15238;49.082;9.102;2023-04-15T11:31:49;15.00;98.00
27890;DHT22;15238;49.082;9.102;2023-04-15T11:33:58;15.00;97.30
27890;DHT22;15238;49.082;9.102;2023-04-15T11:36:01;14.80;95.40
27890;DHT22;15238;49.082;9.102;2023-04-15T11:38:04;14.70;97.40
27890;DHT22;15238;49.082;9.102;2023-04-15T11:40:06;14.30;96.20
27890;DHT22;15238;49.082;9.102;2023-04-15T11:42:16;14.00;98.00
27890;DHT22;15238;49.082;9.102;2023-04-15T11:44:17;13.90;99.60
27890;DHT22;15238;49.082;9.102;2023-04-15T11:46:18;14.00;97.90
27890;DHT22;15238;49.082;9.102;2023-04-15T11:48:21;14.10;97.50
27890;DHT22;15238;49.082;9.102;2023-04-15T11:50:22;14.00;98.30
27890;DHT22;15238;49.082;9.102;2023-04-15T11:52:23;13.90;97.00
27890;DHT22;15238;49.082;9.102;2023-04-15T11:54:25;13.70;98.70
27890;DHT22;15238;49.082;9.102;2023-04-15T11:56:26;13.60;98.20
27890;DHT22;15238;49.082;9.102;2023-04-15T11:58:28;13.40;97.30
27890;DHT22;15238;49.082;9.102;2023-04-15T12:00:29;13.30;98.20
27890;DHT22;15238;49.082;9.102;2023-04-15T12:02:30;13.50;98.30
27890;DHT22;15238;49.082;9.102;2023-04-15T12:04:32;13.60;97.80
27890;DHT22;15238;49.082;9.102;2023-04-15T12:06:32;13.50;96.20
27890;DHT22;15238;49.082;9.102;2023-04-15T12:11:06;13.60;95.20
27890;DHT22;15238;49.082;9.102;2023-04-15T12:13:06;13.60;96.30
27890;DHT22;15238;49.082;9.102;2023-04-15T12:15:08;13.60;97.60
27890;DHT22;15238;49.082;9.102;2023-04-15T12:17:09;13.60;96.20
27890;DHT22;15238;49.082;9.102;2023-04-15T12:19:12;13.60;95.70
27890;DHT22;15238;49.082;9.102;2023-04-15T12:21:13;13.70;95.50
27890;DHT22;15238;49.082;9.102;2023-04-15T12:23:18;13.60;94.30
27890;DHT22;15238;49.082;9.102;2023-04-15T12:25:33;13.50;94.60
27890;DHT22;15238;49.082;9.102;2023-04-15T12:27:33;13.40;92.30
27890;DHT22;15238;49.082;9.102;2023-04-15T12:29:36;13.20;91.80
27890;DHT22;15238;49.082;9.102;2023-04-15T12:31:52;13.20;92.10
27890;DHT22;15238;49.082;9.102;2023-04-15T12:33:59;13.10;88.50
27890;DHT22;15238;49.082;9.102;2023-04-15T12:36:00;13.10;90.40
27890;DHT22;15238;49.082;9.102;2023-04-15T12:38:00;13.10;84.90
27890;DHT22;15238;49.082;9.102;2023-04-15T12:40:01;13.10;82.90
27890;DHT22;15238;49.082;9.102;2023-04-15T12:42:03;13.00;84.20
27890;DHT22;15238;49.082;9.102;2023-04-15T12:44:04;12.90;86.10
27890;DHT22;15238;49.082;9.102;2023-04-15T12:46:05;12.90;84.80
27890;DHT22;15238;49.082;9.102;2023-04-15T12:48:07;12.90;86.00
27890;DHT22;15238;49.082;9.102;2023-04-15T12:50:08;12.80;87.90
27890;DHT22;15238;49.082;9.102;2023-04-15T12:52:09;12.80;90.00
27890;DHT22;15238;49.082;9.102;2023-04-15T12:54:09;12.70;87.50
27890;DHT22;15238;49.082;9.102;2023-04-15T12:56:10;12.70;91.10
27890;DHT22;15238;49.082;9.102;2023-04-15T12:58:10;12.80;89.40
27890;DHT22;15238;49.082;9.102;2023-04-15T13:00:11;12.70;85.40
27890;DHT22;15238;49.082;9.102;2023-04-15T13:02:12;12.80;85.70
27890;DHT22;15238;49.082;9.102;2023-04-15T13:04:13;12.80;85.90
27890;DHT22;15238;49.082;9.102;2023-04-15T13:06:14;12.80;86.80